Time;durP1;ratioP1;P1;durP2;ratioP2;P2;SDS_P1;SDS_P2;PMS_P1;PMS_P2;Temp;Humidity;BMP_temperature;BMP_pressure;BME280_temperature;BME280_humidity;BME280_pressure;Samples;Min_cycle;Max_cycle;Signal;HPM_P1;HPM_P2
2021/10/26 00:01:44;;;;;;;5.43;3.30;;;;;;;3.11;69.26;100449.19;5101921;28;20082;-58
2021/10/26 00:04:30;;;;;;;5.03;2.85;;;;;;;3.37;68.68;100481.28;5100957;28;20044;-58
2021/10/26 00:07:17;;;;;;;4.25;3.00;;;;;;;3.29;69.63;100483.66;5101489;28;20027;-58
2021/10/26 00:10:05;;;;;;;7.80;3.42;;;;;;;3.29;69.64;100475.97;5101606;28;20103;-58
2021/10/26 00:12:51;;;;;;;5.50;3.67;;;;;;;3.26;69.80;100481.94;5101745;28;20031;-58
2021/10/26 00:15:38;;;;;;;5.18;3.55;;;;;;;3.22;70.12;100477.56;5101024;28;20059;-58
2021/10/26 00:18:24;;;;;;;3.72;2.80;;;;;;;3.35;69.62;100488.06;5099841;28;20028;-57
2021/10/26 00:21:10;;;;;;;3.83;2.97;;;;;;;3.36;69.69;100474.44;5086528;28;20251;-57
2021/10/26 00:23:56;;;;;;;4.20;3.03;;;;;;;3.21;70.40;100472.44;5099695;28;20187;-58
2021/10/26 00:26:42;;;;;;;3.50;3.00;;;;;;;3.18;70.08;100465.53;5098948;28;20043;-58
2021/10/26 00:29:28;;;;;;;5.00;3.05;;;;;;;3.32;70.16;100475.19;5107100;28;20102;-58
2021/10/26 00:32:14;;;;;;;3.30;2.45;;;;;;;3.28;69.82;100472.56;5108453;28;20032;-58
2021/10/26 00:35:00;;;;;;;6.43;3.30;;;;;;;3.37;70.12;100464.22;5097258;28;20194;-59
2021/10/26 00:37:46;;;;;;;6.43;3.50;;;;;;;3.29;70.17;100463.19;5102645;28;20241;-59
2021/10/26 00:40:32;;;;;;;4.10;3.13;;;;;;;3.28;70.61;100464.03;5101702;28;20050;-58
2021/10/26 00:43:18;;;;;;;6.28;3.70;;;;;;;3.21;70.42;100457.06;5086353;28;20027;-58
2021/10/26 00:46:05;;;;;;;4.18;3.15;;;;;;;3.13;70.92;100448.34;5088597;28;20051;-58
2021/10/26 00:48:50;;;;;;;7.10;3.45;;;;;;;3.27;70.88;100467.44;5096742;28;20036;-58
2021/10/26 00:51:37;;;;;;;3.58;3.20;;;;;;;3.25;70.47;100469.06;5100077;28;20038;-57
2021/10/26 00:54:24;;;;;;;5.28;2.97;;;;;;;3.24;70.70;100460.53;5083069;28;20017;-58
2021/10/26 00:57:11;;;;;;;4.78;3.38;;;;;;;3.26;70.67;100458.00;5098023;28;20020;-58
2021/10/26 00:59:56;;;;;;;4.25;2.92;;;;;;;3.32;70.27;100452.16;5101403;28;20385;-58
2021/10/26 01:02:44;;;;;;;9.30;3.72;;;;;;;3.19;71.27;100449.34;5099660;28;20036;-57
2021/10/26 01:05:30;;;;;;;5.25;3.70;;;;;;;3.18;71.37;100446.75;5097517;28;20023;-57
2021/10/26 01:08:16;;;;;;;4.78;2.80;;;;;;;3.24;71.42;100440.06;5101589;28;20024;-57
2021/10/26 01:11:02;;;;;;;12.30;3.58;;;;;;;3.19;71.10;100433.13;5101292;28;20031;-58
2021/10/26 01:13:50;;;;;;;6.78;3.63;;;;;;;3.13;71.75;100433.00;5098824;28;20028;-58
2021/10/26 01:16:36;;;;;;;6.35;3.58;;;;;;;3.14;71.69;100416.81;5099981;28;20090;-58
2021/10/26 01:19:22;;;;;;;5.07;3.58;;;;;;;3.18;71.92;100436.50;5083251;28;20043;-59
2021/10/26 01:22:08;;;;;;;4.35;3.30;;;;;;;3.22;70.96;100438.28;5098525;28;20043;-58
2021/10/26 01:24:55;;;;;;;5.05;3.22;;;;;;;3.20;71.50;100428.03;5098410;28;20103;-59
2021/10/26 01:27:48;;;;;;;6.05;3.65;;;;;;;2.85;70.77;100364.22;5082433;28;20028;-59
2021/10/26 01:30:34;;;;;;;4.28;3.42;;;;;;;3.11;71.69;100404.81;5069412;28;20349;-58
2021/10/26 01:33:21;;;;;;;5.43;3.55;;;;;;;3.23;71.43;100425.53;5101521;28;20040;-58
2021/10/26 01:36:07;;;;;;;4.53;3.10;;;;;;;3.07;72.13;100408.16;5100634;28;20038;-58
2021/10/26 01:38:53;;;;;;;7.60;3.47;;;;;;;3.14;71.92;100412.56;5098299;28;20321;-58
2021/10/26 01:41:39;;;;;;;4.97;3.47;;;;;;;3.13;71.70;100412.53;5096915;28;20040;-58
2021/10/26 01:44:26;;;;;;;5.43;3.20;;;;;;;3.20;71.62;100415.22;5098804;28;20082;-58
2021/10/26 01:47:12;;;;;;;5.15;3.83;;;;;;;3.13;72.46;100408.25;5097351;28;20062;-58
2021/10/26 01:49:58;;;;;;;6.75;3.63;;;;;;;3.15;71.97;100400.63;5099945;28;20350;-58
2021/10/26 01:52:45;;;;;;;4.70;3.63;;;;;;;3.11;72.45;100403.13;5091945;28;20016;-56
2021/10/26 01:55:31;;;;;;;6.15;3.38;;;;;;;3.16;71.96;100407.47;5087681;28;20074;-57
2021/10/26 01:58:17;;;;;;;5.72;3.50;;;;;;;3.19;71.74;100397.28;5097302;28;20048;-57
2021/10/26 02:01:03;;;;;;;6.45;4.20;;;;;;;3.24;71.70;100396.56;5100671;28;20043;-58
2021/10/26 02:03:50;;;;;;;4.78;3.72;;;;;;;3.21;71.96;100390.53;5100710;28;20058;-58
2021/10/26 02:06:36;;;;;;;5.78;4.22;;;;;;;3.21;71.74;100388.81;5099465;28;20267;-58
2021/10/26 02:09:22;;;;;;;4.32;3.78;;;;;;;3.22;71.90;100389.66;5088641;28;20024;-59
2021/10/26 02:12:08;;;;;;;8.77;3.63;;;;;;;3.19;71.49;100390.50;5103999;28;20028;-58
2021/10/26 02:14:54;;;;;;;4.70;3.63;;;;;;;3.16;71.44;100375.06;5096755;28;20055;-58
2021/10/26 02:17:40;;;;;;;7.07;4.22;;;;;;;3.11;71.85;100377.53;5100510;28;20095;-58
2021/10/26 02:20:26;;;;;;;5.75;4.10;;;;;;;3.13;72.08;100375.00;5102585;28;20028;-58
2021/10/26 02:23:12;;;;;;;6.30;4.05;;;;;;;3.07;72.16;100378.28;5101408;28;20099;-58
2021/10/26 02:25:58;;;;;;;5.70;3.70;;;;;;;3.11;71.83;100380.09;5101027;28;20031;-57
2021/10/26 02:28:44;;;;;;;6.57;4.13;;;;;;;3.15;71.68;100372.47;5101370;28;20103;-57
2021/10/26 02:31:30;;;;;;;5.75;3.58;;;;;;;3.04;72.43;100369.72;5102262;28;20032;-57
2021/10/26 02:34:16;;;;;;;7.28;3.70;;;;;;;3.01;72.44;100375.63;5090755;28;20034;-57
2021/10/26 02:37:02;;;;;;;6.50;4.10;;;;;;;2.97;72.88;100368.72;5099805;28;20086;-57
2021/10/26 02:39:48;;;;;;;6.97;3.85;;;;;;;3.04;72.70;100362.88;5103966;28;20031;-57
2021/10/26 02:42:34;;;;;;;5.22;3.80;;;;;;;2.94;73.00;100372.06;5101317;28;20061;-57
2021/10/26 02:45:20;;;;;;;6.78;3.92;;;;;;;2.91;73.17;100366.03;5101831;28;20039;-57
2021/10/26 02:48:06;;;;;;;8.30;3.90;;;;;;;2.78;73.56;100359.81;5103962;28;20256;-57
2021/10/26 02:50:52;;;;;;;4.72;3.15;;;;;;;2.91;73.46;100351.53;5102656;28;20043;-58
2021/10/26 02:53:38;;;;;;;4.05;3.63;;;;;;;2.87;72.86;100352.31;5103420;28;20308;-57
2021/10/26 02:56:24;;;;;;;5.57;3.72;;;;;;;2.95;72.86;100355.03;5102267;28;20091;-58
2021/10/26 02:59:10;;;;;;;6.43;3.92;;;;;;;2.94;73.13;100346.47;5103542;28;20032;-58
2021/10/26 03:01:56;;;;;;;8.90;3.83;;;;;;;3.00;72.76;100355.13;5101422;28;20032;-57
2021/10/26 03:04:41;;;;;;;6.25;3.53;;;;;;;2.83;73.17;100358.19;5102091;28;20032;-59
2021/10/26 03:07:27;;;;;;;9.13;3.78;;;;;;;2.91;72.76;100358.38;5085872;28;20028;-58
2021/10/26 03:10:15;;;;;;;5.05;3.40;;;;;;;2.42;72.97;100276.34;5099560;28;20035;-57
2021/10/26 03:13:01;;;;;;;5.15;3.45;;;;;;;2.83;73.70;100342.00;5099348;28;20047;-57
2021/10/26 03:15:47;;;;;;;5.93;3.90;;;;;;;2.84;73.49;100341.16;5094571;28;20083;-58
2021/10/26 03:18:33;;;;;;;6.72;3.75;;;;;;;2.86;73.62;100345.44;5097982;28;20035;-58
2021/10/26 03:21:19;;;;;;;6.53;3.72;;;;;;;2.84;73.57;100338.59;5101443;28;20061;-58
2021/10/26 03:24:05;;;;;;;5.80;3.17;;;;;;;2.89;73.50;100340.44;5088514;28;20161;-58
2021/10/26 03:26:52;;;;;;;5.53;3.72;;;;;;;2.81;73.04;100326.63;5100951;28;20028;-57
2021/10/26 03:29:38;;;;;;;4.97;3.65;;;;;;;2.75;73.27;100341.81;5102363;28;20020;-58
2021/10/26 03:32:25;;;;;;;5.22;3.42;;;;;;;2.80;73.95;100345.34;5103405;28;20090;-58
2021/10/26 03:35:11;;;;;;;6.68;3.85;;;;;;;2.80;73.44;100340.22;5100408;28;20062;-58
2021/10/26 03:37:57;;;;;;;9.00;4.13;;;;;;;2.88;73.20;100333.56;5098547;28;20025;-59
2021/10/26 03:40:43;;;;;;;7.57;4.10;;;;;;;2.81;73.41;100330.84;5090692;28;20047;-58
2021/10/26 03:43:29;;;;;;;6.35;3.80;;;;;;;2.80;73.69;100334.25;5100467;28;20031;-57
2021/10/26 03:46:15;;;;;;;9.18;4.43;;;;;;;2.78;73.18;100324.00;5098949;28;20039;-58
2021/10/26 03:49:02;;;;;;;6.43;4.07;;;;;;;2.67;73.72;100320.34;5099492;28;20333;-58
2021/10/26 03:51:48;;;;;;;7.88;4.25;;;;;;;2.72;73.75;100311.06;5099015;28;20081;-58
2021/10/26 03:54:35;;;;;;;7.15;4.00;;;;;;;2.78;73.87;100313.75;5092189;28;20114;-58
2021/10/26 03:57:21;;;;;;;8.13;4.03;;;;;;;2.73;73.46;100316.22;5095329;28;20032;-58
2021/10/26 04:00:08;;;;;;;7.57;4.20;;;;;;;2.74;73.38;100317.94;5101765;28;20028;-58
2021/10/26 04:02:56;;;;;;;5.22;3.63;;;;;;;2.64;74.32;100322.84;5100963;28;20028;-58
2021/10/26 04:08:37;;;;;;;9.65;4.25;;;;;;;2.80;73.86;100321.47;5100119;28;20028;-57
2021/10/26 04:11:25;;;;;;;6.10;3.90;;;;;;;2.80;73.69;100309.53;5086335;28;20083;-58
2021/10/26 04:14:10;;;;;;;7.90;4.63;;;;;;;2.85;73.20;100312.19;5101432;28;20028;-58
2021/10/26 04:16:56;;;;;;;8.02;4.70;;;;;;;2.70;73.33;100307.63;5100556;28;20028;-57
2021/10/26 04:19:42;;;;;;;7.97;4.70;;;;;;;2.74;74.03;100317.94;5102536;28;20095;-58
2021/10/26 04:22:28;;;;;;;7.45;3.92;;;;;;;2.80;73.76;100313.78;5085822;28;20087;-58
2021/10/26 04:25:14;;;;;;;6.18;4.13;;;;;;;2.80;73.25;100314.66;5100263;28;20325;-58
2021/10/26 04:28:01;;;;;;;7.32;4.53;;;;;;;2.73;73.78;100311.09;5083188;28;20249;-59
2021/10/26 04:30:49;;;;;;;12.68;4.28;;;;;;;2.80;73.64;100324.88;5099299;28;20036;-58
2021/10/26 04:33:35;;;;;;;8.40;4.72;;;;;;;2.82;73.40;100305.31;5100762;28;20030;-58
2021/10/26 04:36:21;;;;;;;7.90;4.80;;;;;;;2.87;73.63;100297.75;5100122;28;20236;-58
2021/10/26 04:39:07;;;;;;;8.13;4.80;;;;;;;2.88;73.12;100295.22;5100670;28;20024;-58
2021/10/26 04:41:53;;;;;;;9.68;4.95;;;;;;;2.78;73.45;100293.31;5099978;28;20059;-58
2021/10/26 04:44:39;;;;;;;8.70;4.45;;;;;;;2.73;73.90;100289.78;5085951;28;20028;-58
2021/10/26 04:47:26;;;;;;;8.15;5.18;;;;;;;2.74;73.75;100294.06;5099223;28;20090;-58
2021/10/26 04:50:13;;;;;;;7.95;4.68;;;;;;;2.79;73.51;100302.69;5099483;28;20040;-58
2021/10/26 04:52:59;;;;;;;8.27;4.47;;;;;;;2.83;73.59;100304.47;5092455;28;20032;-59
2021/10/26 04:55:46;;;;;;;11.00;5.57;;;;;;;2.85;73.67;100300.28;5083517;28;20035;-58
2021/10/26 04:58:32;;;;;;;7.57;4.20;;;;;;;2.92;73.08;100293.56;5084275;28;20032;-59
2021/10/26 05:01:17;;;;;;;9.38;4.70;;;;;;;2.88;73.42;100295.22;5083127;28;20099;-59
2021/10/26 05:04:04;;;;;;;9.25;4.50;;;;;;;2.87;73.88;100297.75;5084191;28;20471;-60
2021/10/26 05:06:50;;;;;;;9.05;4.55;;;;;;;2.91;72.95;100290.16;5098416;28;20041;-59
2021/10/26 05:09:36;;;;;;;8.85;4.53;;;;;;;3.03;72.81;100293.78;5101163;28;20028;-58
2021/10/26 05:12:21;;;;;;;10.07;5.03;;;;;;;2.87;73.05;100290.06;5100204;28;20046;-57
2021/10/26 05:15:08;;;;;;;10.05;4.72;;;;;;;2.91;72.92;100279.06;5098455;28;20047;-58
2021/10/26 05:17:57;;;;;;;12.00;4.68;;;;;;;2.92;72.84;100291.88;5099743;28;20322;-58
2021/10/26 05:20:44;;;;;;;6.82;4.63;;;;;;;3.06;72.34;100291.28;5102518;28;20324;-59
2021/10/26 05:23:30;;;;;;;8.32;4.35;;;;;;;3.05;72.57;100297.22;5093239;28;20024;-59
2021/10/26 05:26:18;;;;;;;6.93;4.72;;;;;;;3.02;72.49;100287.81;5098830;28;20031;-58
2021/10/26 05:29:07;;;;;;;8.15;4.15;;;;;;;3.03;72.24;100284.41;5098777;28;20138;-58
2021/10/26 05:31:53;;;;;;;10.48;4.57;;;;;;;2.96;72.21;100286.81;5096116;28;20027;-58
2021/10/26 05:34:40;;;;;;;8.13;4.25;;;;;;;3.12;72.29;100288.81;5097159;28;20032;-58
2021/10/26 05:37:26;;;;;;;10.00;4.72;;;;;;;3.08;72.00;100281.94;5098555;28;20028;-59
2021/10/26 05:40:12;;;;;;;9.23;4.90;;;;;;;2.89;72.38;100266.25;5096872;28;20020;-58
2021/10/26 05:42:58;;;;;;;10.43;4.90;;;;;;;3.24;71.70;100288.19;5099495;28;20035;-58
2021/10/26 05:45:47;;;;;;;11.13;5.00;;;;;;;3.30;71.49;100283.19;5099974;28;20020;-59
2021/10/26 05:48:33;;;;;;;8.10;4.70;;;;;;;3.31;71.55;100282.34;5099770;28;20035;-58
2021/10/26 05:51:19;;;;;;;7.57;4.55;;;;;;;3.27;71.17;100286.53;5100483;28;20124;-59
2021/10/26 05:54:05;;;;;;;7.32;5.18;;;;;;;3.38;71.25;100280.78;5097252;28;20308;-59
2021/10/26 05:56:51;;;;;;;10.88;4.90;;;;;;;3.42;71.11;100282.53;5099677;28;20145;-60
2021/10/26 05:59:37;;;;;;;8.25;5.05;;;;;;;3.43;70.52;100280.03;5097724;28;20036;-59
2021/10/26 06:02:23;;;;;;;7.93;4.30;;;;;;;3.57;70.76;100279.38;5100789;28;20032;-60
2021/10/26 06:05:11;;;;;;;7.78;4.78;;;;;;;3.56;70.52;100280.22;5098355;28;20060;-58
2021/10/26 06:07:57;;;;;;;8.52;5.10;;;;;;;3.64;69.86;100278.66;5084531;28;20032;-59
2021/10/26 06:10:45;;;;;;;8.35;4.70;;;;;;;3.79;70.08;100281.47;5081994;28;20052;-59
2021/10/26 06:13:35;;;;;;;7.35;4.55;;;;;;;3.86;69.50;100284.94;5099589;28;20032;-58
2021/10/26 06:16:21;;;;;;;8.02;4.75;;;;;;;3.93;69.81;100286.81;5083997;28;20052;-59
2021/10/26 06:19:08;;;;;;;8.50;4.78;;;;;;;3.69;69.01;100286.41;5099443;28;20055;-59
2021/10/26 06:21:55;;;;;;;8.50;4.88;;;;;;;3.78;68.92;100281.44;5116426;28;20038;-62
2021/10/26 06:24:45;;;;;;;10.40;5.50;;;;;;;3.80;69.64;100264.38;5055153;28;20216;-58
2021/10/26 06:27:31;;;;;;;7.00;4.75;;;;;;;3.86;68.93;100284.09;5101528;28;20100;-58
2021/10/26 06:30:17;;;;;;;11.75;5.10;;;;;;;3.94;69.44;100278.25;5101408;28;20023;-58
2021/10/26 06:33:03;;;;;;;11.23;5.20;;;;;;;4.02;69.14;100267.25;5097891;28;20086;-58
2021/10/26 06:35:49;;;;;;;11.75;4.90;;;;;;;4.09;68.92;100269.94;5099353;28;20095;-61
2021/10/26 06:38:35;;;;;;;12.57;4.95;;;;;;;4.27;68.78;100274.44;5085320;28;20348;-59
2021/10/26 06:41:21;;;;;;;9.43;5.30;;;;;;;4.17;68.10;100257.22;5100042;28;20032;-59
2021/10/26 06:44:07;;;;;;;12.20;5.10;;;;;;;4.40;67.49;100254.13;5095283;28;20028;-59
2021/10/26 06:46:53;;;;;;;10.32;5.25;;;;;;;4.63;66.70;100257.84;5099507;28;20225;-59
2021/10/26 06:49:39;;;;;;;11.18;5.57;;;;;;;4.62;66.31;100256.09;5099500;28;20125;-59
2021/10/26 06:52:25;;;;;;;10.13;5.32;;;;;;;4.76;66.79;100260.53;5099396;28;20070;-58
2021/10/26 06:55:18;;;;;;;13.40;5.47;;;;;;;5.16;65.37;100264.41;5102560;28;20016;-58
2021/10/26 06:58:03;;;;;;;9.30;5.07;;;;;;;5.64;63.86;100257.13;5103349;28;20028;-58
2021/10/26 07:00:49;;;;;;;9.30;5.25;;;;;;;5.83;62.96;100252.97;5102005;28;20039;-58
2021/10/26 07:03:36;;;;;;;11.23;5.40;;;;;;;6.14;62.04;100247.19;5103477;28;20048;-58
2021/10/26 07:06:22;;;;;;;10.95;5.57;;;;;;;6.42;61.29;100249.94;5085801;28;20034;-59
2021/10/26 07:09:08;;;;;;;8.75;4.93;;;;;;;5.95;61.12;100248.78;5102592;28;20027;-59
2021/10/26 07:11:54;;;;;;;8.25;5.15;;;;;;;6.15;61.49;100230.94;5102083;28;20067;-59
2021/10/26 07:14:40;;;;;;;10.25;5.10;;;;;;;6.17;60.70;100239.50;5104514;28;20046;-59
2021/10/26 07:17:26;;;;;;;10.88;4.90;;;;;;;6.36;60.23;100238.75;5104509;28;20027;-59
2021/10/26 07:20:14;;;;;;;9.23;5.45;;;;;;;6.29;60.14;100177.00;5102902;28;20028;-59
2021/10/26 07:23:00;;;;;;;9.60;5.30;;;;;;;6.58;59.87;100236.25;5074320;28;20123;-59
2021/10/26 07:25:46;;;;;;;8.48;5.15;;;;;;;6.39;59.45;100235.34;5103794;28;20270;-59
2021/10/26 07:28:32;;;;;;;8.25;5.50;;;;;;;6.69;59.43;100244.03;5101496;28;20027;-59
2021/10/26 07:31:19;;;;;;;9.98;6.03;;;;;;;6.91;59.07;100239.78;5102591;28;20085;-59
2021/10/26 07:34:05;;;;;;;10.52;5.25;;;;;;;7.25;57.71;100240.75;5102684;28;20309;-59
2021/10/26 07:36:52;;;;;;;10.68;5.63;;;;;;;7.33;58.32;100232.16;5101542;28;20035;-59
2021/10/26 07:39:46;;;;;;;11.00;5.65;;;;;;;7.20;57.42;100232.13;5101426;28;20032;-59
2021/10/26 07:42:32;;;;;;;10.77;5.18;;;;;;;7.45;57.53;100226.13;5100663;28;20048;-58
2021/10/26 07:45:18;;;;;;;10.30;5.78;;;;;;;7.66;57.82;100225.28;5100279;28;20095;-59
2021/10/26 07:48:04;;;;;;;9.27;5.30;;;;;;;7.88;55.52;100220.94;5100275;28;20099;-58
2021/10/26 07:50:57;;;;;;;9.52;5.45;;;;;;;8.28;55.79;100201.06;5101718;28;20034;-59
2021/10/26 07:53:42;;;;;;;9.20;5.20;;;;;;;8.07;54.82;100217.47;5085086;28;20025;-59
2021/10/26 07:56:29;;;;;;;8.52;5.40;;;;;;;8.30;55.50;100213.97;5086740;28;20034;-59
2021/10/26 07:59:15;;;;;;;11.30;5.50;;;;;;;8.49;53.49;100217.34;5083748;28;20032;-59
2021/10/26 08:02:01;;;;;;;11.20;5.55;;;;;;;8.10;54.44;100214.88;5085165;28;20031;-59
2021/10/26 08:04:51;;;;;;;9.20;5.85;;;;;;;8.05;54.70;100216.63;5091094;28;20032;-61
2021/10/26 08:07:37;;;;;;;8.00;5.47;;;;;;;7.78;54.80;100209.78;5101944;28;20027;-60
2021/10/26 08:10:23;;;;;;;8.85;5.30;;;;;;;8.22;54.78;100205.38;5100680;28;20081;-59
2021/10/26 08:13:09;;;;;;;10.48;5.70;;;;;;;8.12;54.06;100202.84;5101570;28;20028;-59
2021/10/26 08:15:55;;;;;;;12.75;5.47;;;;;;;7.98;55.28;100193.41;5101426;28;20071;-59
2021/10/26 08:18:43;;;;;;;6.85;5.30;;;;;;;7.93;54.36;100170.22;5109452;28;20019;-59
2021/10/26 08:21:30;;;;;;;12.05;5.43;;;;;;;7.97;55.72;100197.72;5084640;28;20019;-61
2021/10/26 08:24:19;;;;;;;13.30;5.57;;;;;;;8.11;54.08;100188.22;5079575;28;20047;-59
2021/10/26 08:27:08;;;;;;;11.48;5.95;;;;;;;7.83;54.82;100141.03;5088428;28;20030;-59
2021/10/26 08:30:07;;;;;;;9.80;5.68;;;;;;;8.08;55.04;100187.34;5100154;28;20058;-59
2021/10/26 08:33:02;;;;;;;13.68;5.75;;;;;;;8.13;54.66;100175.31;5099569;28;20024;-59
2021/10/26 08:35:49;;;;;;;10.43;5.93;;;;;;;7.98;55.44;100186.56;5097277;28;20030;-59
2021/10/26 08:38:35;;;;;;;13.80;6.13;;;;;;;7.94;54.67;100190.00;5091042;28;20591;-59
2021/10/26 08:41:23;;;;;;;9.80;5.40;;;;;;;8.08;56.16;100192.53;5098804;28;20028;-58
2021/10/26 08:44:10;;;;;;;8.98;5.45;;;;;;;7.90;54.44;100188.28;5102599;28;20040;-59
2021/10/26 08:46:58;;;;;;;12.38;6.00;;;;;;;7.41;54.99;100132.50;5108817;28;20086;-59
2021/10/26 08:49:46;;;;;;;9.77;5.63;;;;;;;7.88;54.98;100179.69;5104752;28;20024;-59
2021/10/26 08:52:32;;;;;;;10.00;5.80;;;;;;;8.21;54.76;100183.00;5093793;28;20027;-59
2021/10/26 08:55:18;;;;;;;10.45;5.82;;;;;;;8.62;53.72;100174.25;5097997;28;20091;-58
2021/10/26 08:58:08;;;;;;;11.82;5.93;;;;;;;9.15;52.26;100167.06;5101508;28;20432;-60
2021/10/26 09:01:01;;;;;;;9.88;6.15;;;;;;;9.62;51.92;100163.19;5079958;28;20051;-59
2021/10/26 09:03:47;;;;;;;11.23;6.25;;;;;;;9.44;50.52;100155.59;5093781;28;20039;-60
2021/10/26 09:06:43;;;;;;;10.80;5.85;;;;;;;8.98;51.63;100113.78;5096742;28;20036;-59
2021/10/26 09:09:29;;;;;;;9.50;6.13;;;;;;;9.38;51.58;100151.34;5099029;28;20318;-59
2021/10/26 09:18:25;;;;;;;8.35;5.40;;;;;;;8.94;52.21;100088.81;5097414;28;20561;-59
2021/10/26 09:21:31;;;;;;;8.73;5.97;;;;;;;9.00;51.59;100149.91;5092008;28;20020;-59
2021/10/26 09:24:17;;;;;;;13.75;7.00;;;;;;;8.84;52.36;100149.19;5100026;28;20094;-59
2021/10/26 09:27:06;;;;;;;13.73;6.97;;;;;;;8.59;53.45;100144.19;5098050;28;20020;-58
2021/10/26 09:29:55;;;;;;;9.80;5.88;;;;;;;8.71;53.54;100138.06;5099638;28;20035;-59
2021/10/26 09:32:44;;;;;;;10.60;7.78;;;;;;;8.57;53.25;100124.41;5100460;28;20016;-60
2021/10/26 09:35:30;;;;;;;13.77;6.15;;;;;;;8.62;53.19;100135.53;5085021;28;20039;-58
2021/10/26 09:38:27;;;;;;;10.93;5.97;;;;;;;8.56;53.17;100127.84;5101112;28;20368;-61
2021/10/26 09:41:13;;;;;;;9.23;5.65;;;;;;;8.44;53.72;100124.47;5098960;28;20078;-60
2021/10/26 09:44:15;;;;;;;14.05;6.43;;;;;;;8.35;53.47;100128.78;5099566;28;20193;-60
2021/10/26 09:47:00;;;;;;;12.63;5.82;;;;;;;8.45;53.11;100126.19;5098217;28;20095;-61
2021/10/26 09:50:05;;;;;;;14.65;6.78;;;;;;;8.39;53.48;100102.09;5097320;28;20039;-60
2021/10/26 09:53:03;;;;;;;12.90;6.38;;;;;;;8.23;53.68;100096.16;5093961;28;20082;-60
2021/10/26 09:55:51;;;;;;;12.18;6.68;;;;;;;8.40;54.28;100114.97;5099875;28;20031;-60
2021/10/26 09:58:37;;;;;;;7.85;5.60;;;;;;;8.59;53.89;100091.66;5098822;28;20321;-61
2021/10/26 10:01:25;;;;;;;10.82;5.78;;;;;;;8.41;53.38;100108.97;5100185;28;20073;-61
2021/10/26 10:04:11;;;;;;;10.18;6.10;;;;;;;8.42;53.08;100084.88;5080780;28;20092;-61
2021/10/26 10:06:59;;;;;;;9.25;5.43;;;;;;;8.42;52.40;100082.31;5088447;28;20091;-60
2021/10/26 10:09:56;;;;;;;13.45;5.75;;;;;;;8.04;53.33;100030.94;5101380;28;20332;-59
2021/10/26 10:12:45;;;;;;;8.35;5.70;;;;;;;8.48;52.87;100080.56;5098520;28;20084;-61
2021/10/26 10:15:31;;;;;;;11.63;6.07;;;;;;;8.28;53.09;100061.72;5098558;28;20200;-60
2021/10/26 10:18:20;;;;;;;9.57;5.78;;;;;;;8.10;53.56;100015.41;5098493;28;20360;-61
2021/10/26 10:21:08;;;;;;;11.85;5.70;;;;;;;8.40;52.45;100060.78;5099354;28;20035;-61
2021/10/26 10:23:56;;;;;;;10.70;5.82;;;;;;;8.48;52.69;100068.53;5100680;28;20035;-61
2021/10/26 10:26:48;;;;;;;9.50;5.65;;;;;;;8.04;51.77;100010.28;5070956;28;20029;-60
2021/10/26 10:29:36;;;;;;;10.73;5.57;;;;;;;8.15;53.17;99997.31;5102414;28;20024;-60
2021/10/26 10:32:23;;;;;;;8.18;5.50;;;;;;;8.24;51.79;99989.53;5103638;28;20062;-60
2021/10/26 10:35:16;;;;;;;11.20;5.97;;;;;;;8.61;51.92;100043.47;5102489;28;20028;-61
2021/10/26 10:38:02;;;;;;;14.65;5.82;;;;;;;8.65;52.17;100032.28;5101625;28;20271;-61
2021/10/26 10:40:48;;;;;;;10.70;5.55;;;;;;;8.78;51.58;100033.03;5102592;28;20051;-60
2021/10/26 10:43:35;;;;;;;8.55;5.30;;;;;;;8.78;51.58;100043.34;5087965;28;20050;-59
2021/10/26 10:46:41;;;;;;;10.38;5.60;;;;;;;8.83;50.67;100022.66;5101420;28;20042;-60
2021/10/26 10:49:36;;;;;;;9.50;5.40;;;;;;;8.93;50.84;100024.28;5085135;28;20025;-61
2021/10/26 10:52:34;;;;;;;8.75;5.35;;;;;;;8.88;50.61;100010.53;5087897;28;20031;-61
2021/10/26 10:55:23;;;;;;;10.32;5.13;;;;;;;8.77;50.44;99982.25;5089288;28;20099;-61
2021/10/26 10:58:30;;;;;;;9.77;6.05;;;;;;;8.60;49.50;99954.84;5099720;28;20020;-64
2021/10/26 11:01:23;;;;;;;9.65;5.45;;;;;;;8.95;50.32;100007.91;5103860;28;20034;-60
2021/10/26 11:04:18;;;;;;;8.18;5.32;;;;;;;8.93;50.73;100008.78;5087829;28;20108;-61
2021/10/26 11:07:04;;;;;;;9.77;5.45;;;;;;;8.99;49.85;100003.53;5096989;28;20293;-61
2021/10/26 11:09:53;;;;;;;12.68;5.50;;;;;;;9.01;48.67;99993.19;5103849;28;20047;-60
2021/10/26 11:12:39;;;;;;;12.82;5.22;;;;;;;9.02;48.33;100000.94;5097416;28;20379;-60
2021/10/26 11:15:43;;;;;;;9.80;5.57;;;;;;;9.01;49.45;99986.31;5099411;28;20076;-61
2021/10/26 11:18:48;;;;;;;16.30;6.00;;;;;;;9.09;48.91;99996.56;5103100;28;20024;-60
2021/10/26 11:21:35;;;;;;;9.60;5.32;;;;;;;9.04;49.55;99982.84;5069574;28;20359;-60
2021/10/26 11:24:21;;;;;;;11.30;5.25;;;;;;;9.14;48.96;99987.88;5101768;28;20031;-61
2021/10/26 11:27:34;;;;;;;10.93;5.50;;;;;;;9.22;49.09;99985.22;5085716;28;20083;-61
2021/10/26 11:30:29;;;;;;;9.95;4.88;;;;;;;9.17;47.21;99974.09;5101848;28;20028;-60
2021/10/26 11:33:15;;;;;;;8.13;5.05;;;;;;;9.09;47.29;99976.75;5087036;28;20021;-61
2021/10/26 11:36:06;;;;;;;7.93;4.53;;;;;;;9.02;47.58;99974.25;5088161;28;20031;-61
2021/10/26 11:38:54;;;;;;;9.52;4.55;;;;;;;9.03;47.14;99961.31;5102956;28;20032;-61
2021/10/26 11:41:43;;;;;;;8.63;4.65;;;;;;;9.22;46.46;99979.19;5098318;28;20058;-61
2021/10/26 11:44:30;;;;;;;10.52;5.13;;;;;;;9.35;47.25;99974.72;5101472;28;20055;-61
2021/10/26 11:47:16;;;;;;;11.60;5.78;;;;;;;9.21;46.14;99973.19;5094185;28;20043;-61
2021/10/26 11:50:02;;;;;;;9.80;4.82;;;;;;;9.26;46.41;99983.44;5092148;28;20057;-62
2021/10/26 11:52:50;;;;;;;10.13;5.00;;;;;;;9.09;46.25;99976.75;5091138;28;20139;-60
2021/10/26 11:55:36;;;;;;;8.25;4.45;;;;;;;9.10;45.98;99981.03;5091868;28;20054;-60
2021/10/26 11:58:22;;;;;;;11.18;5.05;;;;;;;9.21;46.79;99975.75;5100832;28;20028;-60
2021/10/26 12:01:08;;;;;;;9.50;4.30;;;;;;;9.32;46.74;99976.50;5098803;28;20038;-60
2021/10/26 12:03:53;;;;;;;11.75;4.75;;;;;;;9.30;46.47;99970.47;5100611;28;20024;-60
2021/10/26 12:06:39;;;;;;;7.28;4.40;;;;;;;9.39;46.63;99972.13;5085917;28;20044;-61
2021/10/26 12:09:28;;;;;;;8.65;4.43;;;;;;;9.20;45.27;99958.53;5091060;28;20037;-63
2021/10/26 12:12:19;;;;;;;7.65;4.30;;;;;;;9.27;45.57;99959.34;5096552;28;20033;-61
2021/10/26 12:15:08;;;;;;;8.67;5.00;;;;;;;9.04;45.19;99916.53;5101425;28;20067;-60
2021/10/26 12:17:55;;;;;;;9.10;4.43;;;;;;;9.36;46.20;99958.38;5100280;28;20482;-60
2021/10/26 12:20:41;;;;;;;11.30;5.25;;;;;;;9.26;45.23;99958.50;5101546;28;20284;-60
2021/10/26 12:23:27;;;;;;;11.32;4.32;;;;;;;9.09;45.22;99953.50;5100421;28;20028;-60
2021/10/26 12:26:13;;;;;;;7.82;4.55;;;;;;;9.07;45.16;99954.38;5101723;28;20258;-61
2021/10/26 12:28:59;;;;;;;9.40;4.70;;;;;;;8.94;45.33;99958.84;5076118;28;20040;-61
2021/10/26 12:31:45;;;;;;;8.27;4.47;;;;;;;8.89;45.75;99960.59;5099740;28;20038;-60
2021/10/26 12:34:35;;;;;;;8.75;5.10;;;;;;;8.98;45.82;99952.75;5099388;28;20070;-62
2021/10/26 12:37:30;;;;;;;10.13;4.30;;;;;;;9.07;45.69;99957.81;5075677;28;20099;-62
2021/10/26 12:40:21;;;;;;;7.18;4.28;;;;;;;8.96;45.80;99949.31;5071278;28;20078;-61
2021/10/26 12:43:08;;;;;;;13.67;4.43;;;;;;;9.07;46.77;99950.06;5086263;28;20077;-61
2021/10/26 12:46:00;;;;;;;11.70;4.60;;;;;;;9.04;46.24;99944.94;5099402;28;20209;-61
2021/10/26 12:48:46;;;;;;;7.93;4.10;;;;;;;9.01;46.46;99939.81;5101579;28;20024;-60
2021/10/26 12:51:32;;;;;;;7.10;3.92;;;;;;;9.03;46.75;99953.56;5082249;28;20074;-60
2021/10/26 12:54:19;;;;;;;7.72;4.18;;;;;;;8.60;47.71;99908.38;5086021;28;20058;-61
2021/10/26 12:57:05;;;;;;;7.78;4.72;;;;;;;8.79;46.84;99950.38;5085601;28;20032;-60
2021/10/26 12:59:51;;;;;;;6.40;4.47;;;;;;;8.85;47.13;99956.31;5099489;28;20099;-61
2021/10/26 13:02:37;;;;;;;7.93;4.63;;;;;;;8.87;47.26;99945.13;5100291;28;20031;-62
2021/10/26 13:05:23;;;;;;;6.63;4.43;;;;;;;8.83;46.80;99953.75;5086737;28;20333;-61
2021/10/26 13:08:18;;;;;;;11.45;4.75;;;;;;;8.87;46.95;99952.03;5103417;28;20028;-61
2021/10/26 13:11:22;;;;;;;7.75;4.18;;;;;;;8.83;48.29;99950.34;5098186;28;20036;-61
2021/10/26 13:14:12;;;;;;;7.78;4.03;;;;;;;8.42;47.65;99888.75;5077140;28;20024;-60
2021/10/26 13:16:58;;;;;;;8.70;4.32;;;;;;;8.80;47.31;99951.22;5098892;28;20024;-60